sensor_id;sensor_type;location;lat;lon;timestamp;pressure;altitude;pressure_sealevel;temperature;humidity
4586;BME280;2305;50.118;8.952;2022-08-01T00:01:31;100426.97;;;24.73;100.00
4586;BME280;2305;50.118;8.952;2022-08-01T00:04:00;100431.53;;;24.66;100.00
4586;BME280;2305;50.118;8.952;2022-08-01T00:06:28;100428.25;;;24.57;100.00
4586;BME280;2305;50.118;8.952;2022-08-01T00:08:56;100423.91;;;24.56;100.00
4586;BME280;2305;50.118;8.952;2022-08-01T00:11:24;100428.84;;;24.53;100.00
4586;BME280;2305;50.118;8.952;2022-08-01T00:13:52;100427.88;;;24.41;100.00
4586;BME280;2305;50.118;8.952;2022-08-01T00:16:21;100431.59;;;24.40;100.00
4586;BME280;2305;50.118;8.952;2022-08-01T00:18:50;100435.56;;;24.31;100.00
4586;BME280;2305;50.118;8.952;2022-08-01T00:21:18;100439.50;;;24.35;100.00
4586;BME280;2305;50.118;8.952;2022-08-01T00:23:47;100441.56;;;24.27;100.00
4586;BME280;2305;50.118;8.952;2022-08-01T00:26:15;100442.41;;;24.21;100.00
4586;BME280;2305;50.118;8.952;2022-08-01T00:28:43;100438.91;;;24.20;100.00
4586;BME280;2305;50.118;8.952;2022-08-01T00:31:11;100445.72;;;24.16;100.00
4586;BME280;2305;50.118;8.952;2022-08-01T00:33:40;100439.94;;;24.13;100.00
4586;BME280;2305;50.118;8.952;2022-08-01T00:36:11;100436.84;;;24.16;100.00
4586;BME280;2305;50.118;8.952;2022-08-01T00:38:39;100437.69;;;24.10;100.00
4586;BME280;2305;50.118;8.952;2022-08-01T00:41:06;100446.56;;;24.10;100.00
4586;BME280;2305;50.118;8.952;2022-08-01T00:43:34;100433.72;;;24.06;100.00
4586;BME280;2305;50.118;8.952;2022-08-01T00:46:02;100435.19;;;24.02;100.00
4586;BME280;2305;50.118;8.952;2022-08-01T00:48:33;100436.00;;;24.02;100.00
4586;BME280;2305;50.118;8.952;2022-08-01T00:51:03;100426.06;;;23.96;100.00
4586;BME280;2305;50.118;8.952;2022-08-01T00:53:32;100437.28;;;23.93;100.00
4586;BME280;2305;50.118;8.952;2022-08-01T00:56:19;100438.09;;;23.94;100.00
4586;BME280;2305;50.118;8.952;2022-08-01T00:58:47;100434.38;;;23.88;100.00
4586;BME280;2305;50.118;8.952;2022-08-01T01:01:16;100444.31;;;23.88;100.00
4586;BME280;2305;50.118;8.952;2022-08-01T01:03:47;100438.69;;;23.83;100.00
4586;BME280;2305;50.118;8.952;2022-08-01T01:06:33;100437.66;;;23.77;100.00
4586;BME280;2305;50.118;8.952;2022-08-01T01:09:24;100457.50;;;23.76;100.00
4586;BME280;2305;50.118;8.952;2022-08-01T01:12:04;100453.41;;;23.74;100.00
4586;BME280;2305;50.118;8.952;2022-08-01T01:14:42;100453.41;;;23.74;100.00
4586;BME280;2305;50.118;8.952;2022-08-01T01:17:16;100454.81;;;23.70;100.00
4586;BME280;2305;50.118;8.952;2022-08-01T01:20:07;100454.41;;;23.73;100.00
4586;BME280;2305;50.118;8.952;2022-08-01T01:23:06;100454.84;;;23.63;100.00
4586;BME280;2305;50.118;8.952;2022-08-01T01:25:54;100455.22;;;23.60;100.00
4586;BME280;2305;50.118;8.952;2022-08-01T01:28:34;100459.38;;;23.56;100.00
4586;BME280;2305;50.118;8.952;2022-08-01T01:31:06;100459.38;;;23.56;100.00
4586;BME280;2305;50.118;8.952;2022-08-01T01:33:37;100450.66;;;23.54;100.00
4586;BME280;2305;50.118;8.952;2022-08-01T01:36:14;100462.69;;;23.52;100.00
4586;BME280;2305;50.118;8.952;2022-08-01T01:38:45;100458.53;;;23.49;100.00
4586;BME280;2305;50.118;8.952;2022-08-01T01:41:16;100463.94;;;23.49;100.00
4586;BME280;2305;50.118;8.952;2022-08-01T01:43:46;100460.59;;;23.47;100.00
4586;BME280;2305;50.118;8.952;2022-08-01T01:46:18;100465.56;;;23.50;100.00
4586;BME280;2305;50.118;8.952;2022-08-01T01:48:50;100465.81;;;23.55;100.00
4586;BME280;2305;50.118;8.952;2022-08-01T01:51:22;100461.44;;;23.61;100.00
4586;BME280;2305;50.118;8.952;2022-08-01T01:53:52;100469.09;;;23.57;100.00
4586;BME280;2305;50.118;8.952;2022-08-01T01:56:21;100463.13;;;23.55;100.00
4586;BME280;2305;50.118;8.952;2022-08-01T01:58:53;100459.56;;;23.55;100.00
4586;BME280;2305;50.118;8.952;2022-08-01T02:01:25;100461.03;;;23.57;100.00
4586;BME280;2305;50.118;8.952;2022-08-01T02:04:15;100455.66;;;23.64;100.00
4586;BME280;2305;50.118;8.952;2022-08-01T02:06:45;100460.22;;;23.63;100.00
4586;BME280;2305;50.118;8.952;2022-08-01T02:09:16;100465.16;;;23.53;100.00
4586;BME280;2305;50.118;8.952;2022-08-01T02:11:47;100462.66;;;23.39;100.00
4586;BME280;2305;50.118;8.952;2022-08-01T02:14:37;100471.78;;;23.38;100.00
4586;BME280;2305;50.118;8.952;2022-08-01T02:17:08;100476.06;;;23.32;100.00
4586;BME280;2305;50.118;8.952;2022-08-01T02:19:38;100477.72;;;23.27;100.00
4586;BME280;2305;50.118;8.952;2022-08-01T02:22:09;100478.34;;;23.22;100.00
4586;BME280;2305;50.118;8.952;2022-08-01T02:24:40;100471.72;;;23.25;100.00
4586;BME280;2305;50.118;8.952;2022-08-01T02:27:12;100475.47;;;23.30;100.00
4586;BME280;2305;50.118;8.952;2022-08-01T02:29:45;100478.38;;;23.35;100.00
4586;BME280;2305;50.118;8.952;2022-08-01T02:32:20;100472.56;;;23.32;100.00
4586;BME280;2305;50.118;8.952;2022-08-01T02:34:51;100472.16;;;23.28;100.00
4586;BME280;2305;50.118;8.952;2022-08-01T02:37:21;100475.47;;;23.30;100.00
4586;BME280;2305;50.118;8.952;2022-08-01T02:39:52;100474.22;;;23.33;100.00
4586;BME280;2305;50.118;8.952;2022-08-01T02:42:26;100477.97;;;23.32;100.00
4586;BME280;2305;50.118;8.952;2022-08-01T02:44:57;100469.28;;;23.36;100.00
4586;BME280;2305;50.118;8.952;2022-08-01T02:47:29;100476.91;;;23.33;100.00
4586;BME280;2305;50.118;8.952;2022-08-01T02:50:00;100477.34;;;23.36;100.00
4586;BME280;2305;50.118;8.952;2022-08-01T02:52:30;100475.50;;;23.43;100.00
4586;BME280;2305;50.118;8.952;2022-08-01T02:54:59;100478.84;;;23.52;100.00
4586;BME280;2305;50.118;8.952;2022-08-01T02:57:30;100474.88;;;23.54;100.00
4586;BME280;2305;50.118;8.952;2022-08-01T03:00:17;100475.91;;;23.47;100.00
4586;BME280;2305;50.118;8.952;2022-08-01T03:02:52;100480.69;;;23.51;100.00
4586;BME280;2305;50.118;8.952;2022-08-01T03:05:24;100482.34;;;23.46;100.00
4586;BME280;2305;50.118;8.952;2022-08-01T03:07:53;100483.38;;;23.51;100.00
4586;BME280;2305;50.118;8.952;2022-08-01T03:10:30;100479.84;;;23.51;100.00
4586;BME280;2305;50.118;8.952;2022-08-01T03:13:00;100478.59;;;23.53;100.00
4586;BME280;2305;50.118;8.952;2022-08-01T03:15:29;100480.06;;;23.56;100.00
4586;BME280;2305;50.118;8.952;2022-08-01T03:18:01;100473.03;;;23.48;100.00
4586;BME280;2305;50.118;8.952;2022-08-01T03:20:31;100479.41;;;23.47;100.00
4586;BME280;2305;50.118;8.952;2022-08-01T03:23:03;100476.94;;;23.52;100.00
4586;BME280;2305;50.118;8.952;2022-08-01T03:25:32;100476.13;;;23.45;100.00
4586;BME280;2305;50.118;8.952;2022-08-01T03:28:04;100472.56;;;23.38;100.00
4586;BME280;2305;50.118;8.952;2022-08-01T03:30:35;100476.69;;;23.28;100.00
4586;BME280;2305;50.118;8.952;2022-08-01T03:33:06;100478.75;;;23.26;100.00
4586;BME280;2305;50.118;8.952;2022-08-01T03:35:36;100487.63;;;23.26;100.00
4586;BME280;2305;50.118;8.952;2022-08-01T03:38:06;100480.59;;;23.25;100.00
4586;BME280;2305;50.118;8.952;2022-08-01T03:40:46;100481.25;;;23.27;100.00
4586;BME280;2305;50.118;8.952;2022-08-01T03:43:19;100489.53;;;23.26;100.00
4586;BME280;2305;50.118;8.952;2022-08-01T03:45:50;100484.75;;;23.28;100.00
4586;BME280;2305;50.118;8.952;2022-08-01T03:48:24;100486.00;;;23.25;100.00
4586;BME280;2305;50.118;8.952;2022-08-01T03:50:55;100483.72;;;23.22;100.00
4586;BME280;2305;50.118;8.952;2022-08-01T03:53:27;100491.97;;;23.21;100.00
4586;BME280;2305;50.118;8.952;2022-08-01T03:55:58;100495.09;;;23.18;100.00
4586;BME280;2305;50.118;8.952;2022-08-01T03:58:28;100498.34;;;23.13;100.00
4586;BME280;2305;50.118;8.952;2022-08-01T04:00:57;100493.16;;;23.12;100.00
4586;BME280;2305;50.118;8.952;2022-08-01T04:03:27;100487.59;;;23.13;100.00
4586;BME280;2305;50.118;8.952;2022-08-01T04:05:55;100495.69;;;23.20;100.00
4586;BME280;2305;50.118;8.952;2022-08-01T04:08:23;100494.69;;;23.27;100.00
4586;BME280;2305;50.118;8.952;2022-08-01T04:11:01;100491.59;;;23.30;100.00
4586;BME280;2305;50.118;8.952;2022-08-01T04:13:30;100495.31;;;23.36;100.00
4586;BME280;2305;50.118;8.952;2022-08-01T04:16:03;100497.81;;;23.37;100.00
4586;BME280;2305;50.118;8.952;2022-08-01T04:18:33;100503.22;;;23.37;100.00
4586;BME280;2305;50.118;8.952;2022-08-01T04:21:01;100495.31;;;23.36;100.00
4586;BME280;2305;50.118;8.952;2022-08-01T04:23:30;100496.16;;;23.36;100.00
4586;BME280;2305;50.118;8.952;2022-08-01T04:25:59;100499.06;;;23.35;100.00
4586;BME280;2305;50.118;8.952;2022-08-01T04:28:31;100495.75;;;23.39;100.00
4586;BME280;2305;50.118;8.952;2022-08-01T04:31:02;100502.16;;;23.38;100.00
4586;BME280;2305;50.118;8.952;2022-08-01T04:33:34;100500.28;;;23.32;100.00
4586;BME280;2305;50.118;8.952;2022-08-01T04:36:04;100504.84;;;23.32;100.00
4586;BME280;2305;50.118;8.952;2022-08-01T04:38:34;100499.66;;;23.37;100.00
4586;BME280;2305;50.118;8.952;2022-08-01T04:41:05;100501.56;;;23.36;100.00
4586;BME280;2305;50.118;8.952;2022-08-01T04:43:36;100512.50;;;23.35;100.00
4586;BME280;2305;50.118;8.952;2022-08-01T04:46:07;100508.81;;;23.49;100.00
4586;BME280;2305;50.118;8.952;2022-08-01T04:48:38;100513.97;;;23.44;100.00
4586;BME280;2305;50.118;8.952;2022-08-01T04:51:11;100510.44;;;23.37;100.00
4586;BME280;2305;50.118;8.952;2022-08-01T04:53:42;100518.31;;;23.38;100.00
4586;BME280;2305;50.118;8.952;2022-08-01T04:56:10;100511.28;;;23.37;100.00
4586;BME280;2305;50.118;8.952;2022-08-01T04:58:40;100517.69;;;23.43;100.00
4586;BME280;2305;50.118;8.952;2022-08-01T05:01:11;100518.94;;;23.40;100.00
4586;BME280;2305;50.118;8.952;2022-08-01T05:03:40;100519.56;;;23.42;100.00
4586;BME280;2305;50.118;8.952;2022-08-01T05:06:08;100524.75;;;23.50;100.00
4586;BME280;2305;50.118;8.952;2022-08-01T05:08:36;100526.41;;;23.51;100.00
4586;BME280;2305;50.118;8.952;2022-08-01T05:11:04;100523.50;;;23.46;100.00
4586;BME280;2305;50.118;8.952;2022-08-01T05:13:35;100520.84;;;23.53;100.00
4586;BME280;2305;50.118;8.952;2022-08-01T05:16:03;100531.19;;;23.49;100.00
4586;BME280;2305;50.118;8.952;2022-08-01T05:18:33;100539.44;;;23.54;100.00
4586;BME280;2305;50.118;8.952;2022-08-01T05:21:03;100529.97;;;23.65;100.00
4586;BME280;2305;50.118;8.952;2022-08-01T05:23:31;100529.56;;;23.74;100.00
4586;BME280;2305;50.118;8.952;2022-08-01T05:26:09;100543.03;;;23.68;100.00
4586;BME280;2305;50.118;8.952;2022-08-01T05:29:05;100539.72;;;23.72;100.00
4586;BME280;2305;50.118;8.952;2022-08-01T05:31:33;100546.13;;;23.78;100.00
4586;BME280;2305;50.118;8.952;2022-08-01T05:34:02;100541.19;;;23.81;100.00
4586;BME280;2305;50.118;8.952;2022-08-01T05:36:32;100536.41;;;23.83;100.00
4586;BME280;2305;50.118;8.952;2022-08-01T05:39:00;100543.50;;;23.91;100.00
4586;BME280;2305;50.118;8.952;2022-08-01T05:41:28;100549.94;;;24.03;100.00
4586;BME280;2305;50.118;8.952;2022-08-01T05:43:56;100553.44;;;24.03;100.00
4586;BME280;2305;50.118;8.952;2022-08-01T05:46:24;100551.41;;;24.05;100.00
4586;BME280;2305;50.118;8.952;2022-08-01T05:48:53;100546.63;;;24.14;100.00
4586;BME280;2305;50.118;8.952;2022-08-01T05:51:21;100548.50;;;24.13;100.00
4586;BME280;2305;50.118;8.952;2022-08-01T05:53:51;100547.47;;;24.14;100.00
4586;BME280;2305;50.118;8.952;2022-08-01T05:56:21;100542.28;;;24.19;100.00
4586;BME280;2305;50.118;8.952;2022-08-01T05:58:52;100538.97;;;24.24;100.00
4586;BME280;2305;50.118;8.952;2022-08-01T06:01:20;100549.94;;;24.22;100.00
4586;BME280;2305;50.118;8.952;2022-08-01T06:03:48;100545.59;;;24.21;100.00
4586;BME280;2305;50.118;8.952;2022-08-01T06:06:16;100551.19;;;24.13;100.00
4586;BME280;2305;50.118;8.952;2022-08-01T06:08:52;100546.03;;;24.05;100.00
4586;BME280;2305;50.118;8.952;2022-08-01T06:11:20;100539.38;;;24.01;100.00
4586;BME280;2305;50.118;8.952;2022-08-01T06:13:48;100543.94;;;24.07;100.00
4586;BME280;2305;50.118;8.952;2022-08-01T06:16:16;100546.84;;;23.99;100.00
4586;BME280;2305;50.118;8.952;2022-08-01T06:18:44;100547.03;;;23.91;100.00
4586;BME280;2305;50.118;8.952;2022-08-01T06:21:12;100554.25;;;23.84;100.00
4586;BME280;2305;50.118;8.952;2022-08-01T06:23:40;100554.28;;;23.91;100.00
4586;BME280;2305;50.118;8.952;2022-08-01T06:26:10;100561.94;;;23.94;100.00
4586;BME280;2305;50.118;8.952;2022-08-01T06:28:38;100563.59;;;24.01;100.00
4586;BME280;2305;50.118;8.952;2022-08-01T06:31:06;100565.47;;;24.14;100.00
4586;BME280;2305;50.118;8.952;2022-08-01T06:33:36;100563.22;;;24.24;100.00
4586;BME280;2305;50.118;8.952;2022-08-01T06:36:04;100576.25;;;24.33;100.00
4586;BME280;2305;50.118;8.952;2022-08-01T06:38:32;100574.63;;;24.38;100.00
4586;BME280;2305;50.118;8.952;2022-08-01T06:41:00;100575.84;;;24.49;100.00
4586;BME280;2305;50.118;8.952;2022-08-01T06:43:30;100577.50;;;24.50;100.00
4586;BME280;2305;50.118;8.952;2022-08-01T06:45:58;100583.94;;;24.36;100.00
4586;BME280;2305;50.118;8.952;2022-08-01T06:48:26;100575.22;;;24.21;100.00
4586;BME280;2305;50.118;8.952;2022-08-01T06:50:54;100577.91;;;24.15;100.00
4586;BME280;2305;50.118;8.952;2022-08-01T06:53:36;100579.16;;;24.19;100.00
4586;BME280;2305;50.118;8.952;2022-08-01T06:56:05;100584.53;;;24.19;100.00
4586;BME280;2305;50.118;8.952;2022-08-01T06:58:36;100584.78;;;24.24;100.00
4586;BME280;2305;50.118;8.952;2022-08-01T07:01:05;100585.59;;;24.31;100.00
4586;BME280;2305;50.118;8.952;2022-08-01T07:03:34;100588.69;;;24.27;100.00
4586;BME280;2305;50.118;8.952;2022-08-01T07:06:21;100592.22;;;24.28;100.00
4586;BME280;2305;50.118;8.952;2022-08-01T07:08:50;100586.41;;;24.25;100.00
4586;BME280;2305;50.118;8.952;2022-08-01T07:11:18;100588.91;;;24.26;100.00
4586;BME280;2305;50.118;8.952;2022-08-01T07:13:47;100587.03;;;24.33;100.00
4586;BME280;2305;50.118;8.952;2022-08-01T07:16:16;100584.16;;;24.41;100.00
4586;BME280;2305;50.118;8.952;2022-08-01T07:18:44;100582.88;;;24.43;100.00
4586;BME280;2305;50.118;8.952;2022-08-01T07:21:12;100582.47;;;24.46;100.00
4586;BME280;2305;50.118;8.952;2022-08-01T07:24:00;100581.88;;;24.64;100.00
4586;BME280;2305;50.118;8.952;2022-08-01T07:26:38;100580.81;;;24.78;100.00
4586;BME280;2305;50.118;8.952;2022-08-01T07:29:23;100587.63;;;24.87;100.00
4586;BME280;2305;50.118;8.952;2022-08-01T07:31:51;100580.94;;;25.09;100.00
4586;BME280;2305;50.118;8.952;2022-08-01T07:34:20;100576.16;;;25.17;100.00
4586;BME280;2305;50.118;8.952;2022-08-01T07:36:49;100583.81;;;25.20;100.00
4586;BME280;2305;50.118;8.952;2022-08-01T07:39:19;100577.41;;;25.28;100.00
4586;BME280;2305;50.118;8.952;2022-08-01T07:41:50;100577.56;;;25.39;100.00
4586;BME280;2305;50.118;8.952;2022-08-01T07:44:35;100570.03;;;25.48;100.00
4586;BME280;2305;50.118;8.952;2022-08-01T07:47:04;100572.31;;;25.51;100.00
4586;BME280;2305;50.118;8.952;2022-08-01T07:49:33;100570.84;;;25.55;100.00
4586;BME280;2305;50.118;8.952;2022-08-01T07:52:06;100577.03;;;25.62;100.00
4586;BME280;2305;50.118;8.952;2022-08-01T07:54:35;100573.88;;;25.65;100.00
4586;BME280;2305;50.118;8.952;2022-08-01T07:57:04;100574.88;;;25.70;100.00
4586;BME280;2305;50.118;8.952;2022-08-01T07:59:32;100575.25;;;25.80;100.00
4586;BME280;2305;50.118;8.952;2022-08-01T08:02:02;100581.06;;;25.84;100.00
4586;BME280;2305;50.118;8.952;2022-08-01T08:04:31;100576.72;;;25.83;100.00
4586;BME280;2305;50.118;8.952;2022-08-01T08:06:59;100576.72;;;25.83;100.00
4586;BME280;2305;50.118;8.952;2022-08-01T08:09:27;100574.41;;;25.86;100.00
4586;BME280;2305;50.118;8.952;2022-08-01T08:11:55;100580.38;;;25.95;100.00
4586;BME280;2305;50.118;8.952;2022-08-01T08:14:23;100574.09;;;26.01;100.00
4586;BME280;2305;50.118;8.952;2022-08-01T08:16:58;100571.53;;;26.12;100.00
4586;BME280;2305;50.118;8.952;2022-08-01T08:19:29;100566.13;;;26.12;100.00
4586;BME280;2305;50.118;8.952;2022-08-01T08:22:05;100574.22;;;26.12;100.00
4586;BME280;2305;50.118;8.952;2022-08-01T08:24:34;100578.81;;;26.12;100.00
4586;BME280;2305;50.118;8.952;2022-08-01T08:27:14;100578.34;;;26.21;100.00
4586;BME280;2305;50.118;8.952;2022-08-01T08:29:42;100577.53;;;26.39;100.00
4586;BME280;2305;50.118;8.952;2022-08-01T08:32:11;100580.13;;;26.52;100.00
4586;BME280;2305;50.118;8.952;2022-08-01T08:34:40;100586.97;;;26.61;100.00
4586;BME280;2305;50.118;8.952;2022-08-01T08:37:08;100583.34;;;26.67;100.00
4586;BME280;2305;50.118;8.952;2022-08-01T08:39:36;100581.28;;;26.69;100.00
4586;BME280;2305;50.118;8.952;2022-08-01T08:42:08;100580.28;;;26.63;100.00
4586;BME280;2305;50.118;8.952;2022-08-01T08:44:36;100582.03;;;26.51;100.00
4586;BME280;2305;50.118;8.952;2022-08-01T08:47:13;100583.31;;;26.49;100.00
4586;BME280;2305;50.118;8.952;2022-08-01T08:49:49;100583.63;;;26.34;100.00
4586;BME280;2305;50.118;8.952;2022-08-01T08:52:18;100593.59;;;26.09;100.00
4586;BME280;2305;50.118;8.952;2022-08-01T08:54:48;100586.47;;;25.84;100.00
4586;BME280;2305;50.118;8.952;2022-08-01T08:57:19;100588.75;;;25.80;100.00
4586;BME280;2305;50.118;8.952;2022-08-01T08:59:48;100586.47;;;25.84;100.00
4586;BME280;2305;50.118;8.952;2022-08-01T09:02:21;100584.16;;;25.87;100.00
4586;BME280;2305;50.118;8.952;2022-08-01T09:04:51;100597.63;;;25.94;100.00
4586;BME280;2305;50.118;8.952;2022-08-01T09:07:19;100593.88;;;25.95;100.00
4586;BME280;2305;50.118;8.952;2022-08-01T09:09:47;100595.72;;;26.01;100.00
4586;BME280;2305;50.118;8.952;2022-08-01T09:12:18;100585.75;;;26.01;100.00
4586;BME280;2305;50.118;8.952;2022-08-01T09:14:47;100592.59;;;26.04;100.00
4586;BME280;2305;50.118;8.952;2022-08-01T09:17:16;100592.16;;;26.07;100.00
4586;BME280;2305;50.118;8.952;2022-08-01T09:19:46;100595.63;;;26.14;100.00
4586;BME280;2305;50.118;8.952;2022-08-01T09:22:20;100593.13;;;26.19;100.00
4586;BME280;2305;50.118;8.952;2022-08-01T09:25:00;100593.63;;;26.34;100.00
4586;BME280;2305;50.118;8.952;2022-08-01T09:27:28;100597.69;;;26.43;100.00
4586;BME280;2305;50.118;8.952;2022-08-01T09:30:08;100582.53;;;26.42;100.00
4586;BME280;2305;50.118;8.952;2022-08-01T09:32:52;100579.69;;;26.61;100.00
4586;BME280;2305;50.118;8.952;2022-08-01T09:35:25;100581.75;;;26.84;100.00
4586;BME280;2305;50.118;8.952;2022-08-01T09:38:16;100582.66;;;27.14;100.00
4586;BME280;2305;50.118;8.952;2022-08-01T09:40:46;100594.19;;;27.27;100.00
4586;BME280;2305;50.118;8.952;2022-08-01T09:43:16;100586.38;;;27.37;100.00
4586;BME280;2305;50.118;8.952;2022-08-01T09:45:45;100592.59;;;27.38;100.00
4586;BME280;2305;50.118;8.952;2022-08-01T09:48:21;100582.53;;;27.27;100.00
4586;BME280;2305;50.118;8.952;2022-08-01T09:50:56;100581.41;;;27.16;100.00
4586;BME280;2305;50.118;8.952;2022-08-01T09:53:44;100583.56;;;27.08;100.00
4586;BME280;2305;50.118;8.952;2022-08-01T09:56:19;100590.50;;;27.04;100.00
4586;BME280;2305;50.118;8.952;2022-08-01T09:58:55;100593.06;;;27.17;100.00
4586;BME280;2305;50.118;8.952;2022-08-01T10:01:28;100582.97;;;27.06;100.00
4586;BME280;2305;50.118;8.952;2022-08-01T10:04:05;100583.56;;;27.08;100.00
4586;BME280;2305;50.118;8.952;2022-08-01T10:06:36;100588.94;;;27.14;100.00
4586;BME280;2305;50.118;8.952;2022-08-01T10:09:10;100587.50;;;27.30;100.00
4586;BME280;2305;50.118;8.952;2022-08-01T10:11:40;100576.88;;;27.46;100.00
4586;BME280;2305;50.118;8.952;2022-08-01T10:14:11;100585.63;;;27.60;100.00
4586;BME280;2305;50.118;8.952;2022-08-01T10:16:45;100570.19;;;27.49;100.00
4586;BME280;2305;50.118;8.952;2022-08-01T10:19:31;100577.53;;;27.60;100.00
4586;BME280;2305;50.118;8.952;2022-08-01T10:22:00;100566.97;;;27.70;100.00
4586;BME280;2305;50.118;8.952;2022-08-01T10:24:30;100574.63;;;27.73;100.00
4586;BME280;2305;50.118;8.952;2022-08-01T10:27:02;100571.03;;;27.79;100.00
4586;BME280;2305;50.118;8.952;2022-08-01T10:29:43;100574.81;;;27.78;100.00
4586;BME280;2305;50.118;8.952;2022-08-01T10:32:34;100561.22;;;27.96;100.00
4586;BME280;2305;50.118;8.952;2022-08-01T10:35:06;100554.78;;;28.20;100.00
4586;BME280;2305;50.118;8.952;2022-08-01T10:37:41;100563.28;;;28.23;100.00
4586;BME280;2305;50.118;8.952;2022-08-01T10:40:19;100558.56;;;28.19;100.00
4586;BME280;2305;50.118;8.952;2022-08-01T10:42:57;100555.28;;;28.28;100.00
4586;BME280;2305;50.118;8.952;2022-08-01T10:45:26;100549.25;;;28.26;100.00
4586;BME280;2305;50.118;8.952;2022-08-01T10:47:59;100561.63;;;28.34;100.00
4586;BME280;2305;50.118;8.952;2022-08-01T10:50:32;100547.53;;;28.43;100.00
4586;BME280;2305;50.118;8.952;2022-08-01T10:53:13;100555.66;;;28.55;100.00
4586;BME280;2305;50.118;8.952;2022-08-01T10:56:02;100545.75;;;28.72;99.13
4586;BME280;2305;50.118;8.952;2022-08-01T10:58:33;100538.56;;;28.77;98.05
4586;BME280;2305;50.118;8.952;2022-08-01T11:01:16;100532.28;;;28.88;97.15
4586;BME280;2305;50.118;8.952;2022-08-01T11:03:58;100531.19;;;29.12;94.00
4586;BME280;2305;50.118;8.952;2022-08-01T11:06:36;100535.47;;;29.08;93.07
4586;BME280;2305;50.118;8.952;2022-08-01T11:09:20;100524.38;;;28.98;92.86
4586;BME280;2305;50.118;8.952;2022-08-01T11:12:06;100519.66;;;28.82;93.67
4586;BME280;2305;50.118;8.952;2022-08-01T11:18:00;100525.59;;;28.79;90.95
4586;BME280;2305;50.118;8.952;2022-08-01T11:20:32;100527.59;;;28.72;92.02
4586;BME280;2305;50.118;8.952;2022-08-01T11:23:17;100528.75;;;28.65;93.62
4586;BME280;2305;50.118;8.952;2022-08-01T11:26:19;100521.00;;;28.57;95.23
4586;BME280;2305;50.118;8.952;2022-08-01T11:29:16;100520.88;;;28.75;93.39
4586;BME280;2305;50.118;8.952;2022-08-01T11:31:49;100518.97;;;28.64;93.14
4586;BME280;2305;50.118;8.952;2022-08-01T11:34:18;100515.56;;;28.57;95.36
4586;BME280;2305;50.118;8.952;2022-08-01T11:37:22;100518.84;;;28.82;97.62
4586;BME280;2305;50.118;8.952;2022-08-01T11:40:15;100518.31;;;29.19;90.22
4586;BME280;2305;50.118;8.952;2022-08-01T11:42:43;100520.00;;;29.37;89.68
4586;BME280;2305;50.118;8.952;2022-08-01T11:45:13;100526.44;;;29.59;89.62
4586;BME280;2305;50.118;8.952;2022-08-01T11:47:47;100517.44;;;29.70;88.89
4586;BME280;2305;50.118;8.952;2022-08-01T11:50:32;100513.75;;;29.76;87.61
4586;BME280;2305;50.118;8.952;2022-08-01T11:53:03;100515.06;;;29.90;86.13
4586;BME280;2305;50.118;8.952;2022-08-01T11:55:32;100510.88;;;29.99;87.25
4586;BME280;2305;50.118;8.952;2022-08-01T11:58:02;100511.44;;;30.01;87.72
4586;BME280;2305;50.118;8.952;2022-08-01T12:00:34;100507.91;;;30.00;86.75
4586;BME280;2305;50.118;8.952;2022-08-01T12:03:12;100508.56;;;29.91;85.38
4586;BME280;2305;50.118;8.952;2022-08-01T12:05:59;100509.78;;;29.83;84.72
4586;BME280;2305;50.118;8.952;2022-08-01T12:08:30;100502.22;;;29.85;84.39
4586;BME280;2305;50.118;8.952;2022-08-01T12:11:00;100494.53;;;29.66;85.68
4586;BME280;2305;50.118;8.952;2022-08-01T12:13:39;100501.31;;;29.52;88.21
4586;BME280;2305;50.118;8.952;2022-08-01T12:16:10;100495.22;;;29.33;88.47
4586;BME280;2305;50.118;8.952;2022-08-01T12:18:38;100497.81;;;29.12;89.61
4586;BME280;2305;50.118;8.952;2022-08-01T12:21:07;100494.28;;;29.00;90.78
4586;BME280;2305;50.118;8.952;2022-08-01T12:23:35;100495.19;;;29.17;91.83
4586;BME280;2305;50.118;8.952;2022-08-01T12:26:06;100498.00;;;29.50;89.00
4586;BME280;2305;50.118;8.952;2022-08-01T12:28:54;100488.94;;;29.72;86.70
4586;BME280;2305;50.118;8.952;2022-08-01T12:31:32;100497.78;;;29.96;84.65
4586;BME280;2305;50.118;8.952;2022-08-01T12:34:27;100490.28;;;30.19;83.39
4586;BME280;2305;50.118;8.952;2022-08-01T12:36:59;100480.66;;;30.44;80.91
4586;BME280;2305;50.118;8.952;2022-08-01T12:39:31;100485.66;;;30.69;79.84
4586;BME280;2305;50.118;8.952;2022-08-01T12:42:00;100485.41;;;30.92;77.68
4586;BME280;2305;50.118;8.952;2022-08-01T12:44:29;100482.75;;;31.18;76.92
4586;BME280;2305;50.118;8.952;2022-08-01T12:47:00;100491.25;;;31.48;75.13
4586;BME280;2305;50.118;8.952;2022-08-01T12:49:32;100477.94;;;31.73;71.77
4586;BME280;2305;50.118;8.952;2022-08-01T12:52:00;100474.59;;;31.98;70.21
4586;BME280;2305;50.118;8.952;2022-08-01T12:54:29;100466.78;;;32.11;67.95
4586;BME280;2305;50.118;8.952;2022-08-01T12:56:57;100471.69;;;32.14;69.30
4586;BME280;2305;50.118;8.952;2022-08-01T12:59:26;100479.47;;;32.22;68.04
4586;BME280;2305;50.118;8.952;2022-08-01T13:01:55;100465.75;;;32.17;66.29
4586;BME280;2305;50.118;8.952;2022-08-01T13:04:28;100466.84;;;32.16;67.53
4586;BME280;2305;50.118;8.952;2022-08-01T13:06:57;100470.38;;;32.17;62.16
4586;BME280;2305;50.118;8.952;2022-08-01T13:09:25;100466.19;;;32.04;58.79
4586;BME280;2305;50.118;8.952;2022-08-01T13:11:53;100464.78;;;31.97;59.71
4586;BME280;2305;50.118;8.952;2022-08-01T13:14:36;100466.63;;;31.91;55.00
4586;BME280;2305;50.118;8.952;2022-08-01T13:17:07;100464.59;;;31.77;58.83
4586;BME280;2305;50.118;8.952;2022-08-01T13:19:45;100458.31;;;31.76;61.27
4586;BME280;2305;50.118;8.952;2022-08-01T13:22:13;100457.84;;;31.84;63.06
4586;BME280;2305;50.118;8.952;2022-08-01T13:24:42;100452.19;;;31.91;64.14
4586;BME280;2305;50.118;8.952;2022-08-01T13:27:20;100456.66;;;32.07;63.93
4586;BME280;2305;50.118;8.952;2022-08-01T13:29:49;100459.19;;;32.18;63.31
4586;BME280;2305;50.118;8.952;2022-08-01T13:32:20;100467.94;;;32.20;61.01
4586;BME280;2305;50.118;8.952;2022-08-01T13:35:04;100452.19;;;32.27;60.63